LFBZ/BIQ METAR and TAF weather

Enter ICAO airport designator
Station Type Date Time Source
LFBZ METAR 2022/06/30 00:30 UTC NOAA

LFBZ 300030Z AUTO VRB01KT 9999 BKN030 OVC036 15/14 Q1016 TEMPO 2500 RA OVC006


Station Type Date Time Source
LFBZ Decoded METAR 2022/06/30 00:30 UTC NOAA

Biarritz, France (LFBZ) 43-28N 001-32W 71M
Jun 29, 2022 - 08:30 PM EDT / 2022.06.30 0030 UTC
Wind: Variable at 1 MPH (1 KT):0
Visibility: greater than 7 mile(s):0
Sky conditions: overcast
Temperature: 59 F (15 C)
Dew Point: 57 F (14 C)
Relative Humidity: 93%
Pressure (altimeter): 30.00 in. Hg (1016 hPa)
ob: LFBZ 300030Z AUTO VRB01KT 9999 BKN030 OVC036 15/14 Q1016 TEMPO 2500 RA OVC006
cycle: 0

Station Type Date Time Source
LFBZ TAF 2022/06/30 00:45 UTC NOAA

TAF
AMD TAF
AMD LFBZ 300041Z 3000/3024 32005KT 9999 BKN030
TEMPO 3000/3012 4500 -RA BKN010 BKN020 PROB40
TEMPO 3000/3011 2500 RA OVC006 PROB30
TEMPO 3014/3017 SHRA SCT010 SCT020 BKN045TCU
BECMG 3017/3019 VRB03KT CAVOK

Example: see airport list